Terminal Aerodrome Forecast
Issued by NWS

Home | Current Version | Previous Version | Text Only | Print | Product List | Glossary Off
Versions: 1 2 3 4 5 6 7 8 9 10 11 12 13 14 15 16 17 18

000
FTUS43 KGRB 180500
TAFAUW
TAF
KAUW 180534Z 1806/1906 34005KT P6SM OVC013
     FM180900 35003KT P6SM OVC010
      TEMPO 1809/1813 OVC007
     FM181800 34003KT P6SM SCT015
     FM190000 VRB02KT P6SM SKC=

USA.gov is the U.S. government's official web portal to all federal, state and local government web resources and services.